createdAt,value
2023-05-16T05:19:34.171Z,102207.44
2023-05-16T05:27:56.138Z,102221.97
2023-05-16T05:34:24.024Z,102235.53
2023-05-16T05:36:50.939Z,102235.00
2023-05-16T05:39:20.027Z,102231.22
2023-05-16T05:41:55.778Z,102236.94
2023-05-16T05:47:38.202Z,102234.84
2023-05-16T05:50:19.059Z,102230.00
2023-05-16T05:53:04.237Z,102228.81
2023-05-16T05:59:28.022Z,102238.47
2023-05-16T06:02:18.185Z,102238.03
2023-05-16T06:04:50.003Z,102255.25
2023-05-16T06:07:27.302Z,102248.53
2023-05-16T06:13:02.385Z,102255.75
2023-05-16T06:23:11.686Z,102259.94
2023-05-16T06:25:38.521Z,102272.75
2023-05-16T06:28:20.553Z,102275.81
2023-05-16T06:30:47.990Z,102273.78
2023-05-16T06:33:30.879Z,102271.94
2023-05-16T06:35:57.528Z,102273.88
2023-05-16T06:38:27.800Z,102271.22
2023-05-16T06:40:54.582Z,102282.13
2023-05-16T06:43:33.350Z,102273.78
2023-05-16T06:46:00.213Z,102271.81
2023-05-16T06:48:26.907Z,102270.00
2023-05-16T06:51:05.795Z,102281.81
2023-05-16T06:53:32.338Z,102278.28
2023-05-16T06:55:59.101Z,102277.75
2023-05-16T07:01:16.803Z,102284.91
2023-05-16T07:03:43.464Z,102279.03
2023-05-16T07:06:10.108Z,102282.00
2023-05-16T07:08:49.025Z,102282.50
2023-05-16T07:11:15.769Z,102281.56
2023-05-16T07:13:42.322Z,102284.25
2023-05-16T07:16:08.952Z,102277.50
2023-05-16T07:18:35.561Z,102286.22
2023-05-16T07:21:14.499Z,102274.34
2023-05-16T07:23:41.704Z,102282.81
2023-05-16T07:26:08.314Z,102288.94
2023-05-16T07:28:44.300Z,102286.78
2023-05-16T07:31:11.198Z,102289.09
2023-05-16T07:36:18.320Z,102294.50
2023-05-16T07:38:57.284Z,102288.13
2023-05-16T07:41:25.594Z,102282.94
2023-05-16T07:43:52.243Z,102285.28
2023-05-16T07:46:27.509Z,102288.59
2023-05-16T07:49:00.461Z,102285.63
2023-05-16T07:51:27.056Z,102291.19
2023-05-16T07:53:53.632Z,102293.91
2023-05-16T07:56:35.711Z,102302.34
2023-05-16T07:59:11.727Z,102303.25
2023-05-16T08:01:38.473Z,102302.94
2023-05-16T08:04:05.599Z,102315.22
2023-05-16T08:06:52.459Z,102306.59
2023-05-16T08:09:35.214Z,102314.16
2023-05-16T08:12:13.727Z,102318.94
2023-05-16T08:14:40.274Z,102316.69
2023-05-16T08:17:07.366Z,102318.13
2023-05-16T08:19:46.957Z,102317.03
2023-05-16T08:22:13.854Z,102306.16
2023-05-16T08:24:55.866Z,102309.97
2023-05-16T08:27:25.136Z,102306.97
2023-05-16T08:30:24.025Z,102305.63
2023-05-16T08:32:50.913Z,102305.31
2023-05-16T08:35:30.381Z,102296.09
2023-05-16T08:37:56.981Z,102292.22
2023-05-16T08:40:41.385Z,102292.09
2023-05-16T08:43:08.015Z,102295.78
2023-05-16T08:45:49.524Z,102304.66
2023-05-16T08:48:32.676Z,102303.41
2023-05-16T09:00:35.982Z,102283.09
2023-05-16T09:03:11.883Z,102291.38
2023-05-16T09:05:38.624Z,102304.25
2023-05-16T09:08:05.886Z,102298.16
2023-05-16T09:10:51.031Z,102308.97
2023-05-16T09:13:18.057Z,102300.97
2023-05-16T09:16:09.216Z,102297.81
2023-05-16T09:18:36.425Z,102309.06
2023-05-16T09:21:17.218Z,102302.31
2023-05-16T09:23:44.807Z,102308.38
2023-05-16T09:26:12.070Z,102302.47
2023-05-16T09:28:55.226Z,102304.97
2023-05-16T09:31:40.589Z,102311.88
2023-05-16T09:34:09.040Z,102306.34
2023-05-16T09:36:36.101Z,102289.53
2023-05-16T09:39:15.672Z,102301.97
2023-05-16T09:41:52.406Z,102295.97
2023-05-16T09:44:32.153Z,102299.78
2023-05-16T09:46:58.947Z,102314.41
2023-05-16T09:49:26.550Z,102308.78
2023-05-16T09:52:05.625Z,102314.84
2023-05-16T09:55:12.811Z,102317.03
2023-05-16T09:57:40.399Z,102302.59
2023-05-16T10:00:28.660Z,102304.34
2023-05-16T10:03:02.426Z,102302.41
2023-05-16T10:13:13.287Z,102309.13
2023-05-16T10:15:40.031Z,102307.69
2023-05-16T10:20:55.439Z,102301.88
2023-05-16T10:29:54.571Z,102309.16
2023-05-16T10:32:24.595Z,102307.56
2023-05-16T10:34:51.851Z,102315.13
2023-05-16T10:37:35.259Z,102310.34
2023-05-16T10:46:49.697Z,102318.72
2023-05-16T10:50:04.736Z,102317.69
2023-05-16T10:52:57.515Z,102302.75
2023-05-16T10:55:49.621Z,102307.56
2023-05-16T10:58:31.271Z,102310.44
2023-05-16T11:01:20.900Z,102310.44
2023-05-16T11:04:10.513Z,102302.00
2023-05-16T11:07:05.960Z,102296.44
2023-05-16T11:09:45.436Z,102305.59
2023-05-16T11:12:21.180Z,102300.72
2023-05-16T11:15:38.466Z,102304.59
2023-05-16T11:18:31.066Z,102303.88
2023-05-16T11:21:04.518Z,102305.44
2023-05-16T11:23:31.326Z,102303.59
2023-05-16T11:26:00.378Z,102302.84
2023-05-16T11:28:41.875Z,102302.28
2023-05-16T11:31:13.871Z,102312.28
2023-05-16T11:33:49.390Z,102325.13
2023-05-16T11:36:38.331Z,102317.41
2023-05-16T11:39:25.597Z,102324.06
2023-05-16T11:41:53.997Z,102322.59
2023-05-16T11:44:35.262Z,102320.59
2023-05-16T11:47:02.731Z,102334.13
2023-05-16T11:49:30.239Z,102328.38
2023-05-16T11:52:09.700Z,102332.06
2023-05-16T11:54:36.626Z,102331.28
2023-05-16T11:57:09.522Z,102327.41
2023-05-16T11:59:37.160Z,102331.50
2023-05-16T12:02:16.111Z,102343.81
2023-05-16T12:04:47.212Z,102335.25
2023-05-16T12:07:30.413Z,102332.25
2023-05-16T12:09:57.003Z,102335.44
2023-05-16T12:12:44.954Z,102337.63
2023-05-16T12:15:31.865Z,102332.72
2023-05-16T12:18:11.945Z,102340.78
2023-05-16T12:20:47.181Z,102334.66
2023-05-16T12:23:23.465Z,102333.81
2023-05-16T12:25:57.748Z,102343.78
2023-05-16T12:28:39.402Z,102346.50
2023-05-16T12:31:31.693Z,102340.91
2023-05-16T12:33:59.242Z,102337.03
2023-05-16T12:36:28.746Z,102341.50
2023-05-16T12:39:15.626Z,102343.22
2023-05-16T12:41:43.491Z,102341.03
2023-05-16T12:44:30.157Z,102338.31
2023-05-16T12:46:58.389Z,102338.38
2023-05-16T12:49:51.336Z,102338.78
2023-05-16T12:52:33.178Z,102334.81
2023-05-16T12:54:59.971Z,102328.03
2023-05-16T12:57:42.743Z,102339.13
2023-05-16T13:02:52.718Z,102348.34
2023-05-16T13:05:20.682Z,102343.91
2023-05-16T13:07:47.303Z,102341.00
2023-05-16T13:10:17.723Z,102346.38
2023-05-16T13:15:39.329Z,102345.81
2023-05-16T13:18:52.854Z,102344.28
2023-05-16T13:20:53.703Z,102342.88
2023-05-16T13:23:44.973Z,102347.25
2023-05-16T13:26:11.540Z,102347.38
2023-05-16T13:31:25.225Z,102342.59
2023-05-16T13:33:52.204Z,102348.47
2023-05-16T13:36:49.207Z,102348.63
2023-05-16T13:39:19.508Z,102350.72
2023-05-16T13:41:48.695Z,102358.69
2023-05-16T13:44:27.451Z,102357.25
2023-05-16T13:46:59.995Z,102343.84
2023-05-16T13:49:26.698Z,102342.97
2023-05-16T13:54:36.595Z,102343.41
2023-05-16T13:57:18.663Z,102345.69
2023-05-16T14:00:11.569Z,102333.50
2023-05-16T14:02:38.294Z,102355.16
2023-05-16T14:05:26.548Z,102341.25
2023-05-16T14:08:15.615Z,102342.41
2023-05-16T14:10:44.747Z,102340.81
2023-05-16T14:19:11.878Z,102356.31
2023-05-16T14:21:41.943Z,102350.56
2023-05-16T14:27:22.277Z,102360.28
2023-05-16T14:30:32.162Z,102346.50
2023-05-16T14:33:06.745Z,102349.81
2023-05-16T14:35:50.381Z,102358.75
2023-05-16T14:38:54.092Z,102348.13
2023-05-16T14:41:24.167Z,102355.56
2023-05-16T14:43:51.035Z,102353.72
2023-05-16T15:19:43.326Z,102348.03
2023-05-16T15:22:32.100Z,102359.50
2023-05-16T15:25:17.763Z,102349.34
2023-05-16T15:27:44.390Z,102356.16
2023-05-16T15:30:23.382Z,102345.47
2023-05-16T15:32:50.183Z,102356.13
2023-05-16T15:36:19.835Z,102352.19
2023-05-16T15:38:04.907Z,102360.16
2023-05-16T15:44:18.604Z,102359.00
2023-05-16T15:46:51.475Z,102353.81
2023-05-16T15:49:21.414Z,102368.81
2023-05-16T15:52:02.728Z,102369.66
2023-05-16T15:54:38.743Z,102375.72
2023-05-16T15:57:28.935Z,102375.53
2023-05-16T15:59:55.473Z,102382.94
2023-05-16T16:02:42.555Z,102381.38
2023-05-16T16:05:39.234Z,102381.44
2023-05-16T16:08:13.522Z,102377.66
2023-05-16T16:10:54.802Z,102387.81
2023-05-16T16:17:21.393Z,102386.78
2023-05-16T16:19:47.993Z,102388.31
2023-05-16T16:22:14.515Z,102390.91
2023-05-16T16:32:49.047Z,102384.34
2023-05-16T16:35:20.636Z,102388.66
2023-05-16T16:38:02.411Z,102395.19
2023-05-16T16:40:32.760Z,102391.63
2023-05-16T16:46:01.657Z,102404.31
2023-05-16T16:48:34.271Z,102395.97
2023-05-16T16:51:43.920Z,102400.16
2023-05-16T17:03:52.477Z,102407.31
2023-05-16T17:06:50.834Z,102405.47
2023-05-16T17:13:33.919Z,102415.16
2023-05-16T17:16:07.275Z,102409.63
2023-05-16T22:02:33.226Z,102596.22
